sensor_id;sensor_type;location;lat;lon;timestamp;temperature;humidity
36424;DHT22;22458;45.328;9.514;2022-07-10T00:00:09;26.30;50.90
36424;DHT22;22458;45.328;9.514;2022-07-10T00:02:40;26.30;50.90
36424;DHT22;22458;45.328;9.514;2022-07-10T00:05:07;26.30;51.00
36424;DHT22;22458;45.328;9.514;2022-07-10T00:07:33;26.20;51.00
36424;DHT22;22458;45.328;9.514;2022-07-10T00:09:59;26.20;51.20
36424;DHT22;22458;45.328;9.514;2022-07-10T00:12:25;26.10;51.30
36424;DHT22;22458;45.328;9.514;2022-07-10T00:14:51;26.10;51.30
36424;DHT22;22458;45.328;9.514;2022-07-10T00:17:17;25.90;51.40
36424;DHT22;22458;45.328;9.514;2022-07-10T00:19:43;25.80;51.60
36424;DHT22;22458;45.328;9.514;2022-07-10T00:22:09;25.80;51.70
36424;DHT22;22458;45.328;9.514;2022-07-10T00:24:35;25.70;51.90
36424;DHT22;22458;45.328;9.514;2022-07-10T00:27:00;25.60;52.10
36424;DHT22;22458;45.328;9.514;2022-07-10T00:29:26;25.60;52.30
36424;DHT22;22458;45.328;9.514;2022-07-10T00:31:52;25.50;52.30
36424;DHT22;22458;45.328;9.514;2022-07-10T00:34:18;25.60;52.30
36424;DHT22;22458;45.328;9.514;2022-07-10T00:36:44;25.60;52.40
36424;DHT22;22458;45.328;9.514;2022-07-10T00:39:10;25.50;52.50
36424;DHT22;22458;45.328;9.514;2022-07-10T00:41:36;25.50;52.60
36424;DHT22;22458;45.328;9.514;2022-07-10T00:44:03;25.50;52.70
36424;DHT22;22458;45.328;9.514;2022-07-10T00:46:30;25.50;52.90
36424;DHT22;22458;45.328;9.514;2022-07-10T00:48:56;25.40;52.90
36424;DHT22;22458;45.328;9.514;2022-07-10T00:51:25;25.40;53.10
36424;DHT22;22458;45.328;9.514;2022-07-10T00:53:51;25.30;53.20
36424;DHT22;22458;45.328;9.514;2022-07-10T00:56:20;25.20;53.30
36424;DHT22;22458;45.328;9.514;2022-07-10T00:58:47;25.10;53.70
36424;DHT22;22458;45.328;9.514;2022-07-10T01:01:13;25.00;54.00
36424;DHT22;22458;45.328;9.514;2022-07-10T01:03:39;24.90;54.20
36424;DHT22;22458;45.328;9.514;2022-07-10T01:06:05;24.80;54.40
36424;DHT22;22458;45.328;9.514;2022-07-10T01:08:33;24.80;54.70
36424;DHT22;22458;45.328;9.514;2022-07-10T01:11:01;24.70;54.80
36424;DHT22;22458;45.328;9.514;2022-07-10T01:13:27;24.70;54.90
36424;DHT22;22458;45.328;9.514;2022-07-10T01:15:53;24.70;55.20
36424;DHT22;22458;45.328;9.514;2022-07-10T01:18:19;24.60;55.20
36424;DHT22;22458;45.328;9.514;2022-07-10T01:20:45;24.60;55.40
36424;DHT22;22458;45.328;9.514;2022-07-10T01:23:11;24.60;55.50
36424;DHT22;22458;45.328;9.514;2022-07-10T01:25:37;24.60;55.60
36424;DHT22;22458;45.328;9.514;2022-07-10T01:28:03;24.60;55.50
36424;DHT22;22458;45.328;9.514;2022-07-10T01:30:29;24.60;55.40
36424;DHT22;22458;45.328;9.514;2022-07-10T01:32:54;24.60;55.30
36424;DHT22;22458;45.328;9.514;2022-07-10T01:35:20;24.60;55.30
36424;DHT22;22458;45.328;9.514;2022-07-10T01:37:46;24.60;55.40
36424;DHT22;22458;45.328;9.514;2022-07-10T01:40:12;24.50;55.50
36424;DHT22;22458;45.328;9.514;2022-07-10T01:42:38;24.50;55.70
36424;DHT22;22458;45.328;9.514;2022-07-10T01:45:08;24.40;55.80
36424;DHT22;22458;45.328;9.514;2022-07-10T01:47:34;24.40;55.80
36424;DHT22;22458;45.328;9.514;2022-07-10T01:50:04;24.50;55.80
36424;DHT22;22458;45.328;9.514;2022-07-10T01:52:30;24.50;55.70
36424;DHT22;22458;45.328;9.514;2022-07-10T01:54:56;24.50;55.70
36424;DHT22;22458;45.328;9.514;2022-07-10T01:57:21;24.50;55.80
36424;DHT22;22458;45.328;9.514;2022-07-10T01:59:47;24.40;56.10
36424;DHT22;22458;45.328;9.514;2022-07-10T02:02:13;24.40;56.00
36424;DHT22;22458;45.328;9.514;2022-07-10T02:04:39;24.40;55.80
36424;DHT22;22458;45.328;9.514;2022-07-10T02:07:14;24.40;55.60
36424;DHT22;22458;45.328;9.514;2022-07-10T02:09:41;24.40;55.50
36424;DHT22;22458;45.328;9.514;2022-07-10T02:12:09;24.40;55.50
36424;DHT22;22458;45.328;9.514;2022-07-10T02:14:36;24.20;55.60
36424;DHT22;22458;45.328;9.514;2022-07-10T02:17:02;24.10;55.90
36424;DHT22;22458;45.328;9.514;2022-07-10T02:19:28;24.00;56.40
36424;DHT22;22458;45.328;9.514;2022-07-10T02:21:54;24.00;56.30
36424;DHT22;22458;45.328;9.514;2022-07-10T02:24:20;24.00;56.20
36424;DHT22;22458;45.328;9.514;2022-07-10T02:26:45;24.00;56.10
36424;DHT22;22458;45.328;9.514;2022-07-10T02:29:11;24.00;55.90
36424;DHT22;22458;45.328;9.514;2022-07-10T02:31:37;24.00;56.10
36424;DHT22;22458;45.328;9.514;2022-07-10T02:34:10;24.00;56.30
36424;DHT22;22458;45.328;9.514;2022-07-10T02:36:37;24.00;56.20
36424;DHT22;22458;45.328;9.514;2022-07-10T02:39:05;24.00;56.00
36424;DHT22;22458;45.328;9.514;2022-07-10T02:41:31;24.10;56.00
36424;DHT22;22458;45.328;9.514;2022-07-10T02:43:57;24.10;55.80
36424;DHT22;22458;45.328;9.514;2022-07-10T02:46:23;24.00;55.70
36424;DHT22;22458;45.328;9.514;2022-07-10T02:48:49;24.00;55.90
36424;DHT22;22458;45.328;9.514;2022-07-10T02:51:15;23.90;56.00
36424;DHT22;22458;45.328;9.514;2022-07-10T02:53:41;23.80;56.10
36424;DHT22;22458;45.328;9.514;2022-07-10T02:56:07;23.80;56.10
36424;DHT22;22458;45.328;9.514;2022-07-10T02:58:33;23.80;56.00
36424;DHT22;22458;45.328;9.514;2022-07-10T03:00:59;23.80;56.10
36424;DHT22;22458;45.328;9.514;2022-07-10T03:03:25;23.80;56.20
36424;DHT22;22458;45.328;9.514;2022-07-10T03:05:51;23.80;56.90
36424;DHT22;22458;45.328;9.514;2022-07-10T03:08:17;23.80;56.30
36424;DHT22;22458;45.328;9.514;2022-07-10T03:10:43;23.80;56.50
36424;DHT22;22458;45.328;9.514;2022-07-10T03:13:09;23.70;56.60
36424;DHT22;22458;45.328;9.514;2022-07-10T03:15:34;23.60;56.70
36424;DHT22;22458;45.328;9.514;2022-07-10T03:18:00;23.60;56.90
36424;DHT22;22458;45.328;9.514;2022-07-10T03:20:26;23.50;57.00
36424;DHT22;22458;45.328;9.514;2022-07-10T03:22:52;23.60;57.10
36424;DHT22;22458;45.328;9.514;2022-07-10T03:25:18;23.60;57.00
36424;DHT22;22458;45.328;9.514;2022-07-10T03:27:43;23.60;57.00
36424;DHT22;22458;45.328;9.514;2022-07-10T03:30:09;23.50;57.00
36424;DHT22;22458;45.328;9.514;2022-07-10T03:32:35;23.60;57.10
36424;DHT22;22458;45.328;9.514;2022-07-10T03:35:01;23.60;57.10
36424;DHT22;22458;45.328;9.514;2022-07-10T03:37:27;23.60;57.20
36424;DHT22;22458;45.328;9.514;2022-07-10T03:39:53;23.50;57.30
36424;DHT22;22458;45.328;9.514;2022-07-10T03:42:19;23.40;57.60
36424;DHT22;22458;45.328;9.514;2022-07-10T03:44:45;23.30;57.70
36424;DHT22;22458;45.328;9.514;2022-07-10T03:47:11;23.30;57.90
36424;DHT22;22458;45.328;9.514;2022-07-10T03:49:37;23.30;58.00
36424;DHT22;22458;45.328;9.514;2022-07-10T03:52:07;23.30;58.10
36424;DHT22;22458;45.328;9.514;2022-07-10T03:54:33;23.30;58.10
36424;DHT22;22458;45.328;9.514;2022-07-10T03:56:59;23.40;58.20
36424;DHT22;22458;45.328;9.514;2022-07-10T03:59:43;23.40;58.20
36424;DHT22;22458;45.328;9.514;2022-07-10T04:02:09;23.40;58.20
36424;DHT22;22458;45.328;9.514;2022-07-10T04:04:35;23.40;58.20
36424;DHT22;22458;45.328;9.514;2022-07-10T04:07:01;23.30;58.20
36424;DHT22;22458;45.328;9.514;2022-07-10T04:09:27;23.40;58.30
36424;DHT22;22458;45.328;9.514;2022-07-10T04:11:52;23.40;58.30
36424;DHT22;22458;45.328;9.514;2022-07-10T04:14:18;23.40;58.60
36424;DHT22;22458;45.328;9.514;2022-07-10T04:16:44;23.40;59.10
36424;DHT22;22458;45.328;9.514;2022-07-10T04:19:10;23.40;59.60
36424;DHT22;22458;45.328;9.514;2022-07-10T04:21:36;23.40;59.80
36424;DHT22;22458;45.328;9.514;2022-07-10T04:24:03;23.40;59.80
36424;DHT22;22458;45.328;9.514;2022-07-10T04:26:28;23.40;59.80
36424;DHT22;22458;45.328;9.514;2022-07-10T04:28:57;23.40;59.90
36424;DHT22;22458;45.328;9.514;2022-07-10T04:31:28;23.50;60.60
36424;DHT22;22458;45.328;9.514;2022-07-10T04:33:54;23.30;60.80
36424;DHT22;22458;45.328;9.514;2022-07-10T04:36:23;23.20;61.00
36424;DHT22;22458;45.328;9.514;2022-07-10T04:38:49;23.10;61.20
36424;DHT22;22458;45.328;9.514;2022-07-10T04:41:15;22.90;61.70
36424;DHT22;22458;45.328;9.514;2022-07-10T04:43:41;22.70;62.30
36424;DHT22;22458;45.328;9.514;2022-07-10T04:46:06;22.60;62.90
36424;DHT22;22458;45.328;9.514;2022-07-10T04:48:32;22.50;63.20
36424;DHT22;22458;45.328;9.514;2022-07-10T04:50:58;22.40;63.50
36424;DHT22;22458;45.328;9.514;2022-07-10T04:53:24;22.50;63.30
36424;DHT22;22458;45.328;9.514;2022-07-10T04:55:50;22.60;63.10
36424;DHT22;22458;45.328;9.514;2022-07-10T04:58:16;22.70;63.00
36424;DHT22;22458;45.328;9.514;2022-07-10T05:00:42;22.70;62.90
36424;DHT22;22458;45.328;9.514;2022-07-10T05:03:07;22.80;62.80
36424;DHT22;22458;45.328;9.514;2022-07-10T05:05:33;22.90;62.60
36424;DHT22;22458;45.328;9.514;2022-07-10T05:07:59;23.00;62.50
36424;DHT22;22458;45.328;9.514;2022-07-10T05:10:25;23.00;62.90
36424;DHT22;22458;45.328;9.514;2022-07-10T05:12:50;23.00;63.10
36424;DHT22;22458;45.328;9.514;2022-07-10T05:15:16;23.00;63.20
36424;DHT22;22458;45.328;9.514;2022-07-10T05:17:42;23.10;63.10
36424;DHT22;22458;45.328;9.514;2022-07-10T05:20:08;23.20;63.00
36424;DHT22;22458;45.328;9.514;2022-07-10T05:22:34;23.20;63.40
36424;DHT22;22458;45.328;9.514;2022-07-10T05:25:00;23.00;63.60
36424;DHT22;22458;45.328;9.514;2022-07-10T05:27:25;23.10;63.50
36424;DHT22;22458;45.328;9.514;2022-07-10T05:29:55;23.20;63.20
36424;DHT22;22458;45.328;9.514;2022-07-10T05:32:20;23.20;63.20
36424;DHT22;22458;45.328;9.514;2022-07-10T05:34:47;23.20;63.10
36424;DHT22;22458;45.328;9.514;2022-07-10T05:37:15;23.30;63.10
36424;DHT22;22458;45.328;9.514;2022-07-10T05:39:43;23.30;63.00
36424;DHT22;22458;45.328;9.514;2022-07-10T05:42:09;23.30;63.10
36424;DHT22;22458;45.328;9.514;2022-07-10T05:44:35;23.40;63.20
36424;DHT22;22458;45.328;9.514;2022-07-10T05:47:01;23.40;63.10
36424;DHT22;22458;45.328;9.514;2022-07-10T05:49:26;23.50;62.90
36424;DHT22;22458;45.328;9.514;2022-07-10T05:51:52;23.40;63.00
36424;DHT22;22458;45.328;9.514;2022-07-10T05:54:18;23.40;63.10
36424;DHT22;22458;45.328;9.514;2022-07-10T05:56:44;23.40;63.30
36424;DHT22;22458;45.328;9.514;2022-07-10T05:59:10;23.50;63.10
36424;DHT22;22458;45.328;9.514;2022-07-10T06:01:36;23.70;62.80
36424;DHT22;22458;45.328;9.514;2022-07-10T06:04:02;23.60;62.80
36424;DHT22;22458;45.328;9.514;2022-07-10T06:06:27;23.70;62.70
36424;DHT22;22458;45.328;9.514;2022-07-10T06:08:53;23.80;63.30
36424;DHT22;22458;45.328;9.514;2022-07-10T06:11:19;23.80;62.70
36424;DHT22;22458;45.328;9.514;2022-07-10T06:13:45;23.80;62.90
36424;DHT22;22458;45.328;9.514;2022-07-10T06:16:10;23.90;62.90
36424;DHT22;22458;45.328;9.514;2022-07-10T06:18:36;23.90;62.80
36424;DHT22;22458;45.328;9.514;2022-07-10T06:21:02;24.10;62.70
36424;DHT22;22458;45.328;9.514;2022-07-10T06:23:28;24.10;62.60
36424;DHT22;22458;45.328;9.514;2022-07-10T06:26:00;24.10;62.30
36424;DHT22;22458;45.328;9.514;2022-07-10T06:28:25;24.10;62.30
36424;DHT22;22458;45.328;9.514;2022-07-10T06:30:51;24.20;62.20
36424;DHT22;22458;45.328;9.514;2022-07-10T06:33:17;24.30;62.20
36424;DHT22;22458;45.328;9.514;2022-07-10T06:35:43;24.40;61.90
36424;DHT22;22458;45.328;9.514;2022-07-10T06:38:08;24.50;61.50
36424;DHT22;22458;45.328;9.514;2022-07-10T06:40:37;24.60;61.40
36424;DHT22;22458;45.328;9.514;2022-07-10T07:01:22;25.10;60.20
36424;DHT22;22458;45.328;9.514;2022-07-10T07:03:51;25.20;60.00
36424;DHT22;22458;45.328;9.514;2022-07-10T07:06:17;25.30;59.70
36424;DHT22;22458;45.328;9.514;2022-07-10T07:08:43;25.40;59.30
36424;DHT22;22458;45.328;9.514;2022-07-10T07:11:09;25.40;58.90
36424;DHT22;22458;45.328;9.514;2022-07-10T07:13:35;25.60;58.70
36424;DHT22;22458;45.328;9.514;2022-07-10T07:16:00;25.70;58.50
36424;DHT22;22458;45.328;9.514;2022-07-10T07:18:30;25.80;57.80
36424;DHT22;22458;45.328;9.514;2022-07-10T07:21:01;25.90;58.00
36424;DHT22;22458;45.328;9.514;2022-07-10T07:23:45;26.00;57.30
36424;DHT22;22458;45.328;9.514;2022-07-10T07:26:17;26.10;57.30
36424;DHT22;22458;45.328;9.514;2022-07-10T07:28:43;26.20;56.50
36424;DHT22;22458;45.328;9.514;2022-07-10T07:31:09;26.30;56.20
36424;DHT22;22458;45.328;9.514;2022-07-10T07:33:35;26.40;55.40
36424;DHT22;22458;45.328;9.514;2022-07-10T07:36:00;26.40;55.20
36424;DHT22;22458;45.328;9.514;2022-07-10T07:38:26;26.60;54.90
36424;DHT22;22458;45.328;9.514;2022-07-10T07:40:52;26.70;54.40
36424;DHT22;22458;45.328;9.514;2022-07-10T07:43:18;26.80;53.90
36424;DHT22;22458;45.328;9.514;2022-07-10T07:45:43;27.00;53.80
36424;DHT22;22458;45.328;9.514;2022-07-10T07:48:09;27.20;53.10
36424;DHT22;22458;45.328;9.514;2022-07-10T07:50:36;27.20;52.60
36424;DHT22;22458;45.328;9.514;2022-07-10T07:53:03;27.30;52.40
36424;DHT22;22458;45.328;9.514;2022-07-10T07:55:30;27.40;51.60
36424;DHT22;22458;45.328;9.514;2022-07-10T07:57:57;27.40;51.10
36424;DHT22;22458;45.328;9.514;2022-07-10T08:00:24;27.50;50.60
36424;DHT22;22458;45.328;9.514;2022-07-10T08:02:51;27.50;49.70
36424;DHT22;22458;45.328;9.514;2022-07-10T08:05:18;27.50;49.40
36424;DHT22;22458;45.328;9.514;2022-07-10T08:07:46;27.60;49.60
36424;DHT22;22458;45.328;9.514;2022-07-10T08:10:15;27.70;49.50
36424;DHT22;22458;45.328;9.514;2022-07-10T08:12:41;27.70;49.30
36424;DHT22;22458;45.328;9.514;2022-07-10T08:15:08;27.70;49.70
36424;DHT22;22458;45.328;9.514;2022-07-10T08:17:34;27.70;49.50
36424;DHT22;22458;45.328;9.514;2022-07-10T08:20:00;27.80;49.10
36424;DHT22;22458;45.328;9.514;2022-07-10T08:22:26;27.90;48.60
36424;DHT22;22458;45.328;9.514;2022-07-10T08:24:51;27.90;48.50
36424;DHT22;22458;45.328;9.514;2022-07-10T08:27:17;27.90;48.00
36424;DHT22;22458;45.328;9.514;2022-07-10T08:29:43;28.10;47.80
36424;DHT22;22458;45.328;9.514;2022-07-10T08:32:09;28.20;47.30
36424;DHT22;22458;45.328;9.514;2022-07-10T08:34:36;28.20;47.10
36424;DHT22;22458;45.328;9.514;2022-07-10T08:37:02;28.30;47.10
36424;DHT22;22458;45.328;9.514;2022-07-10T08:39:28;28.40;47.00
36424;DHT22;22458;45.328;9.514;2022-07-10T08:41:54;28.40;46.70
36424;DHT22;22458;45.328;9.514;2022-07-10T08:44:20;28.40;46.40
36424;DHT22;22458;45.328;9.514;2022-07-10T08:46:47;28.40;46.00
36424;DHT22;22458;45.328;9.514;2022-07-10T08:49:13;28.50;46.60
36424;DHT22;22458;45.328;9.514;2022-07-10T08:54:13;28.70;46.90
36424;DHT22;22458;45.328;9.514;2022-07-10T08:56:40;28.80;46.50
36424;DHT22;22458;45.328;9.514;2022-07-10T08:59:07;28.80;46.20
36424;DHT22;22458;45.328;9.514;2022-07-10T09:01:34;28.90;45.60
36424;DHT22;22458;45.328;9.514;2022-07-10T09:03:59;28.90;45.50
36424;DHT22;22458;45.328;9.514;2022-07-10T09:06:27;29.00;45.70
36424;DHT22;22458;45.328;9.514;2022-07-10T09:09:04;29.10;45.50
36424;DHT22;22458;45.328;9.514;2022-07-10T09:11:36;29.20;45.60
36424;DHT22;22458;45.328;9.514;2022-07-10T09:14:05;29.20;46.10
36424;DHT22;22458;45.328;9.514;2022-07-10T09:16:38;29.40;46.10
36424;DHT22;22458;45.328;9.514;2022-07-10T09:19:23;29.50;45.60
36424;DHT22;22458;45.328;9.514;2022-07-10T09:22:05;29.60;45.80
36424;DHT22;22458;45.328;9.514;2022-07-10T09:24:43;29.60;45.20
36424;DHT22;22458;45.328;9.514;2022-07-10T09:27:10;29.70;45.00
36424;DHT22;22458;45.328;9.514;2022-07-10T09:29:52;29.80;44.50
36424;DHT22;22458;45.328;9.514;2022-07-10T09:32:21;29.80;44.10
36424;DHT22;22458;45.328;9.514;2022-07-10T09:34:49;29.80;44.20
36424;DHT22;22458;45.328;9.514;2022-07-10T09:37:39;29.90;44.60
36424;DHT22;22458;45.328;9.514;2022-07-10T09:40:06;30.10;44.90
36424;DHT22;22458;45.328;9.514;2022-07-10T09:47:38;30.20;43.70
36424;DHT22;22458;45.328;9.514;2022-07-10T09:50:06;30.10;43.40
36424;DHT22;22458;45.328;9.514;2022-07-10T09:52:45;30.20;43.40
36424;DHT22;22458;45.328;9.514;2022-07-10T09:55:13;30.30;43.90
36424;DHT22;22458;45.328;9.514;2022-07-10T09:57:41;30.40;43.40
36424;DHT22;22458;45.328;9.514;2022-07-10T10:00:10;30.50;42.80
36424;DHT22;22458;45.328;9.514;2022-07-10T10:02:38;30.50;42.50
36424;DHT22;22458;45.328;9.514;2022-07-10T10:05:04;30.50;41.80
36424;DHT22;22458;45.328;9.514;2022-07-10T10:07:32;30.50;41.90
36424;DHT22;22458;45.328;9.514;2022-07-10T10:10:01;30.50;42.10
36424;DHT22;22458;45.328;9.514;2022-07-10T10:12:31;30.60;42.50
36424;DHT22;22458;45.328;9.514;2022-07-10T10:15:01;30.70;42.70
36424;DHT22;22458;45.328;9.514;2022-07-10T10:17:28;30.70;42.90
36424;DHT22;22458;45.328;9.514;2022-07-10T10:19:55;30.80;42.60
36424;DHT22;22458;45.328;9.514;2022-07-10T10:22:41;30.70;42.70
36424;DHT22;22458;45.328;9.514;2022-07-10T10:25:07;30.90;42.30
36424;DHT22;22458;45.328;9.514;2022-07-10T10:27:35;30.80;42.20
36424;DHT22;22458;45.328;9.514;2022-07-10T10:30:02;30.90;41.80
36424;DHT22;22458;45.328;9.514;2022-07-10T10:32:28;31.00;41.20
36424;DHT22;22458;45.328;9.514;2022-07-10T10:34:53;31.10;41.10
36424;DHT22;22458;45.328;9.514;2022-07-10T10:37:41;31.20;40.70
36424;DHT22;22458;45.328;9.514;2022-07-10T10:40:10;31.30;40.00
36424;DHT22;22458;45.328;9.514;2022-07-10T10:42:41;31.20;40.20
36424;DHT22;22458;45.328;9.514;2022-07-10T10:45:33;31.30;39.60
36424;DHT22;22458;45.328;9.514;2022-07-10T10:53:26;31.70;40.00
36424;DHT22;22458;45.328;9.514;2022-07-10T10:58:45;32.10;40.00
36424;DHT22;22458;45.328;9.514;2022-07-10T11:12:10;32.30;39.20
36424;DHT22;22458;45.328;9.514;2022-07-10T11:14:40;32.40;39.60
36424;DHT22;22458;45.328;9.514;2022-07-10T11:17:09;32.40;39.20
36424;DHT22;22458;45.328;9.514;2022-07-10T11:19:36;32.50;39.50
36424;DHT22;22458;45.328;9.514;2022-07-10T11:28:04;32.70;39.10
36424;DHT22;22458;45.328;9.514;2022-07-10T11:31:06;32.90;39.40
36424;DHT22;22458;45.328;9.514;2022-07-10T11:33:42;33.20;39.00
36424;DHT22;22458;45.328;9.514;2022-07-10T11:36:20;33.10;38.60
36424;DHT22;22458;45.328;9.514;2022-07-10T11:38:47;33.10;38.90
36424;DHT22;22458;45.328;9.514;2022-07-10T11:41:20;33.10;39.00
36424;DHT22;22458;45.328;9.514;2022-07-10T11:43:57;33.20;38.50
36424;DHT22;22458;45.328;9.514;2022-07-10T11:46:28;33.20;38.90
36424;DHT22;22458;45.328;9.514;2022-07-10T11:48:55;33.30;38.80
36424;DHT22;22458;45.328;9.514;2022-07-10T11:51:28;33.30;38.00
36424;DHT22;22458;45.328;9.514;2022-07-10T11:54:04;33.40;37.90
36424;DHT22;22458;45.328;9.514;2022-07-10T11:56:39;33.60;37.90
36424;DHT22;22458;45.328;9.514;2022-07-10T11:59:09;33.80;37.60
36424;DHT22;22458;45.328;9.514;2022-07-10T12:01:42;33.90;37.10
36424;DHT22;22458;45.328;9.514;2022-07-10T12:04:09;33.90;37.50
36424;DHT22;22458;45.328;9.514;2022-07-10T12:06:37;34.10;37.70
36424;DHT22;22458;45.328;9.514;2022-07-10T12:09:08;34.20;37.00
36424;DHT22;22458;45.328;9.514;2022-07-10T12:11:35;34.20;36.80
36424;DHT22;22458;45.328;9.514;2022-07-10T12:14:14;34.20;37.10
36424;DHT22;22458;45.328;9.514;2022-07-10T12:16:43;34.20;36.10
36424;DHT22;22458;45.328;9.514;2022-07-10T12:19:12;34.10;36.10
36424;DHT22;22458;45.328;9.514;2022-07-10T12:21:41;34.20;36.10
36424;DHT22;22458;45.328;9.514;2022-07-10T12:24:07;34.20;35.40
36424;DHT22;22458;45.328;9.514;2022-07-10T12:26:34;34.20;35.70
36424;DHT22;22458;45.328;9.514;2022-07-10T12:29:02;34.20;35.30
36424;DHT22;22458;45.328;9.514;2022-07-10T12:31:30;34.20;35.60
36424;DHT22;22458;45.328;9.514;2022-07-10T12:34:02;34.30;35.80
36424;DHT22;22458;45.328;9.514;2022-07-10T12:36:45;34.40;35.00
36424;DHT22;22458;45.328;9.514;2022-07-10T12:39:16;34.40;35.00
36424;DHT22;22458;45.328;9.514;2022-07-10T12:49:57;34.60;35.30
36424;DHT22;22458;45.328;9.514;2022-07-10T12:52:25;34.70;35.20
36424;DHT22;22458;45.328;9.514;2022-07-10T12:58:09;34.80;35.30
36424;DHT22;22458;45.328;9.514;2022-07-10T13:00:44;34.90;35.30
36424;DHT22;22458;45.328;9.514;2022-07-10T13:03:20;34.90;35.50
36424;DHT22;22458;45.328;9.514;2022-07-10T13:05:48;35.00;35.50
36424;DHT22;22458;45.328;9.514;2022-07-10T13:08:18;35.00;35.70
36424;DHT22;22458;45.328;9.514;2022-07-10T13:10:54;34.80;35.80
36424;DHT22;22458;45.328;9.514;2022-07-10T13:13:20;34.90;35.90
36424;DHT22;22458;45.328;9.514;2022-07-10T13:15:47;34.90;35.60
36424;DHT22;22458;45.328;9.514;2022-07-10T13:18:17;35.00;35.80
36424;DHT22;22458;45.328;9.514;2022-07-10T13:20:47;35.00;35.80
36424;DHT22;22458;45.328;9.514;2022-07-10T13:23:16;35.10;35.90
36424;DHT22;22458;45.328;9.514;2022-07-10T13:25:42;35.10;35.70
36424;DHT22;22458;45.328;9.514;2022-07-10T13:28:09;35.20;35.40
36424;DHT22;22458;45.328;9.514;2022-07-10T13:30:36;35.20;35.40
36424;DHT22;22458;45.328;9.514;2022-07-10T13:33:02;35.20;34.60
36424;DHT22;22458;45.328;9.514;2022-07-10T13:35:31;35.10;34.00
36424;DHT22;22458;45.328;9.514;2022-07-10T13:38:00;35.20;34.10
36424;DHT22;22458;45.328;9.514;2022-07-10T13:40:31;35.20;34.20
36424;DHT22;22458;45.328;9.514;2022-07-10T13:42:57;35.30;34.30
36424;DHT22;22458;45.328;9.514;2022-07-10T13:45:24;35.40;34.00
36424;DHT22;22458;45.328;9.514;2022-07-10T13:47:51;35.40;34.00
36424;DHT22;22458;45.328;9.514;2022-07-10T13:50:20;35.50;34.20
36424;DHT22;22458;45.328;9.514;2022-07-10T13:52:46;35.70;33.80
36424;DHT22;22458;45.328;9.514;2022-07-10T13:55:12;35.60;33.50
36424;DHT22;22458;45.328;9.514;2022-07-10T13:57:39;35.50;33.60
36424;DHT22;22458;45.328;9.514;2022-07-10T14:00:05;35.50;33.80
36424;DHT22;22458;45.328;9.514;2022-07-10T14:02:38;35.60;33.80
36424;DHT22;22458;45.328;9.514;2022-07-10T14:05:04;35.70;33.70
36424;DHT22;22458;45.328;9.514;2022-07-10T14:07:30;35.50;33.50
36424;DHT22;22458;45.328;9.514;2022-07-10T14:09:55;35.40;33.50
36424;DHT22;22458;45.328;9.514;2022-07-10T14:12:22;35.50;33.80
36424;DHT22;22458;45.328;9.514;2022-07-10T14:14:48;35.60;33.40
36424;DHT22;22458;45.328;9.514;2022-07-10T14:17:13;35.50;33.40
36424;DHT22;22458;45.328;9.514;2022-07-10T14:19:39;35.40;33.50
36424;DHT22;22458;45.328;9.514;2022-07-10T14:22:07;35.40;33.80
36424;DHT22;22458;45.328;9.514;2022-07-10T14:24:33;35.40;33.50
36424;DHT22;22458;45.328;9.514;2022-07-10T14:26:59;35.40;33.50
36424;DHT22;22458;45.328;9.514;2022-07-10T14:29:25;35.40;33.30
36424;DHT22;22458;45.328;9.514;2022-07-10T14:31:51;35.50;33.30
36424;DHT22;22458;45.328;9.514;2022-07-10T14:34:18;35.50;33.50
36424;DHT22;22458;45.328;9.514;2022-07-10T14:36:43;35.40;33.60
36424;DHT22;22458;45.328;9.514;2022-07-10T14:39:10;35.50;33.60
36424;DHT22;22458;45.328;9.514;2022-07-10T14:41:38;35.50;33.30
36424;DHT22;22458;45.328;9.514;2022-07-10T14:44:04;35.70;33.30
36424;DHT22;22458;45.328;9.514;2022-07-10T14:46:30;35.90;33.20
36424;DHT22;22458;45.328;9.514;2022-07-10T14:48:56;36.00;33.20
36424;DHT22;22458;45.328;9.514;2022-07-10T14:51:22;36.10;32.90
36424;DHT22;22458;45.328;9.514;2022-07-10T14:53:48;36.20;32.90
36424;DHT22;22458;45.328;9.514;2022-07-10T14:56:14;36.40;32.60
36424;DHT22;22458;45.328;9.514;2022-07-10T14:58:45;36.60;32.50
36424;DHT22;22458;45.328;9.514;2022-07-10T15:01:11;36.70;32.50
36424;DHT22;22458;45.328;9.514;2022-07-10T15:03:37;36.70;32.50
36424;DHT22;22458;45.328;9.514;2022-07-10T15:06:03;36.70;32.00
36424;DHT22;22458;45.328;9.514;2022-07-10T15:08:28;36.70;32.00
36424;DHT22;22458;45.328;9.514;2022-07-10T15:10:54;36.50;32.00
36424;DHT22;22458;45.328;9.514;2022-07-10T15:13:20;36.40;32.00
36424;DHT22;22458;45.328;9.514;2022-07-10T15:15:46;36.20;32.30
36424;DHT22;22458;45.328;9.514;2022-07-10T15:18:14;36.10;32.00
36424;DHT22;22458;45.328;9.514;2022-07-10T15:20:40;36.00;32.20
36424;DHT22;22458;45.328;9.514;2022-07-10T15:23:06;36.10;32.50
36424;DHT22;22458;45.328;9.514;2022-07-10T15:25:32;36.20;32.80
36424;DHT22;22458;45.328;9.514;2022-07-10T15:27:57;36.40;32.70
36424;DHT22;22458;45.328;9.514;2022-07-10T15:30:23;36.50;32.80
36424;DHT22;22458;45.328;9.514;2022-07-10T15:32:49;36.50;32.30
36424;DHT22;22458;45.328;9.514;2022-07-10T15:35:15;36.40;32.30
36424;DHT22;22458;45.328;9.514;2022-07-10T15:37:41;36.30;32.30
36424;DHT22;22458;45.328;9.514;2022-07-10T15:40:07;36.40;32.80
36424;DHT22;22458;45.328;9.514;2022-07-10T15:42:33;36.40;32.60
36424;DHT22;22458;45.328;9.514;2022-07-10T15:44:59;36.40;32.70
36424;DHT22;22458;45.328;9.514;2022-07-10T15:47:25;36.30;32.90
36424;DHT22;22458;45.328;9.514;2022-07-10T15:49:50;36.20;33.00
36424;DHT22;22458;45.328;9.514;2022-07-10T15:52:16;36.40;32.80
36424;DHT22;22458;45.328;9.514;2022-07-10T15:54:42;36.20;32.70
36424;DHT22;22458;45.328;9.514;2022-07-10T15:57:09;36.30;33.00
36424;DHT22;22458;45.328;9.514;2022-07-10T15:59:37;36.30;32.90
36424;DHT22;22458;45.328;9.514;2022-07-10T16:02:04;36.30;32.80
36424;DHT22;22458;45.328;9.514;2022-07-10T16:04:30;36.20;32.70
36424;DHT22;22458;45.328;9.514;2022-07-10T16:06:56;36.30;33.00
36424;DHT22;22458;45.328;9.514;2022-07-10T16:09:22;36.30;32.90
36424;DHT22;22458;45.328;9.514;2022-07-10T16:11:47;36.30;32.80
36424;DHT22;22458;45.328;9.514;2022-07-10T16:14:13;36.10;32.70
36424;DHT22;22458;45.328;9.514;2022-07-10T16:16:39;35.90;32.80
36424;DHT22;22458;45.328;9.514;2022-07-10T16:19:06;35.90;32.80
36424;DHT22;22458;45.328;9.514;2022-07-10T16:21:33;35.90;32.80
36424;DHT22;22458;45.328;9.514;2022-07-10T16:24:03;36.10;33.00
36424;DHT22;22458;45.328;9.514;2022-07-10T16:26:30;36.10;32.90
36424;DHT22;22458;45.328;9.514;2022-07-10T16:28:57;36.10;32.60
36424;DHT22;22458;45.328;9.514;2022-07-10T16:31:23;36.20;32.70
36424;DHT22;22458;45.328;9.514;2022-07-10T16:33:50;36.30;32.50